Time;durP1;ratioP1;P1;durP2;ratioP2;P2;SDS_P1;SDS_P2;PMS_P1;PMS_P2;Temp;Humidity;BMP_temperature;BMP_pressure;BME280_temperature;BME280_humidity;BME280_pressure;Samples;Min_cycle;Max_cycle;Signal;HPM_P1;HPM_P2
2021/05/14 00:01:08;;;;;;;3.20;0.50;;;;;;;13.87;59.94;98553.28;4450554;32;20102;-88
2021/05/14 00:03:34;;;;;;;1.48;0.57;;;;;;;13.78;59.93;98554.72;4437509;32;20432;-88
2021/05/14 00:05:59;;;;;;;3.03;0.43;;;;;;;13.74;59.94;98554.09;4437704;32;20210;-89
2021/05/14 00:08:24;;;;;;;0.68;0.50;;;;;;;13.75;59.94;98552.31;4452270;32;20140;-89
2021/05/14 00:10:51;;;;;;;0.65;0.40;;;;;;;13.58;59.93;98555.16;4452775;32;20138;-89
2021/05/14 00:13:16;;;;;;;0.65;0.57;;;;;;;13.85;59.94;98549.94;4427214;32;20153;-89
2021/05/14 00:15:42;;;;;;;2.97;0.60;;;;;;;13.80;59.94;98551.06;4452773;32;20093;-88
2021/05/14 00:18:07;;;;;;;1.00;0.50;;;;;;;13.76;59.93;98557.44;4452267;32;20116;-88
2021/05/14 00:20:32;;;;;;;1.42;0.40;;;;;;;13.83;59.94;98552.66;4426337;32;25984;-89
2021/05/14 00:22:58;;;;;;;0.50;0.45;;;;;;;13.86;59.93;98551.63;4439360;32;20190;-89
2021/05/14 00:25:23;;;;;;;1.27;0.52;;;;;;;13.80;59.94;98550.25;4439516;32;20555;-88
2021/05/14 00:27:49;;;;;;;0.90;0.40;;;;;;;13.77;59.94;98553.87;4452390;32;20100;-89
2021/05/14 00:30:14;;;;;;;0.80;0.43;;;;;;;13.76;59.94;98549.59;4438739;32;33767;-89
2021/05/14 00:32:40;;;;;;;4.72;0.45;;;;;;;13.60;59.92;98561.97;4426601;32;20532;-88
2021/05/14 00:35:06;;;;;;;0.60;0.45;;;;;;;13.69;59.93;98552.69;4426830;32;20122;-89
2021/05/14 00:37:31;;;;;;;1.80;0.30;;;;;;;13.73;59.93;98564.66;4439745;32;20458;-89
2021/05/14 00:39:57;;;;;;;0.40;0.40;;;;;;;13.51;59.93;98565.16;4439188;32;20152;-87
2021/05/14 00:42:22;;;;;;;0.32;0.32;;;;;;;13.68;59.93;98567.53;4452177;32;20105;-89
2021/05/14 00:44:48;;;;;;;3.12;0.60;;;;;;;13.73;59.94;98556.81;4438426;32;33420;-88
2021/05/14 00:47:14;;;;;;;0.75;0.40;;;;;;;13.74;59.94;98561.09;4451665;32;20274;-88
2021/05/14 00:49:40;;;;;;;0.52;0.47;;;;;;;13.85;59.94;98557.78;4452200;32;20610;-88
2021/05/14 00:52:08;;;;;;;0.93;0.55;;;;;;;13.77;59.93;98560.91;4439398;32;20145;-89
2021/05/14 00:54:33;;;;;;;0.57;0.47;;;;;;;13.75;59.93;98561.00;4452132;32;20507;-88
2021/05/14 00:56:59;;;;;;;1.83;0.50;;;;;;;13.68;59.93;98566.69;4453433;32;20117;-89
2021/05/14 00:59:25;;;;;;;1.27;0.43;;;;;;;13.51;59.92;98565.16;4452279;32;20135;-88
2021/05/14 01:01:50;;;;;;;0.30;0.30;;;;;;;13.61;59.93;98568.03;4439469;32;20119;-88
2021/05/14 01:04:16;;;;;;;1.58;0.50;;;;;;;13.64;59.92;98570.44;4452342;32;20093;-89
2021/05/14 01:06:41;;;;;;;0.82;0.60;;;;;;;13.70;59.93;98573.50;4439104;32;20166;-89
2021/05/14 01:09:07;;;;;;;0.82;0.62;;;;;;;13.85;59.94;98573.47;4426720;32;20202;-88
2021/05/14 01:11:33;;;;;;;1.17;0.50;;;;;;;13.83;59.94;98581.41;4451877;32;20089;-88
2021/05/14 01:13:58;;;;;;;0.45;0.40;;;;;;;13.83;59.94;98570.97;4439599;32;20154;-90
2021/05/14 01:16:24;;;;;;;1.52;0.68;;;;;;;13.69;59.93;98578.84;4439838;32;20177;-89
2021/05/14 01:18:50;;;;;;;2.60;0.60;;;;;;;13.71;59.93;98572.56;4452204;32;20755;-89
2021/05/14 01:21:15;;;;;;;1.50;0.88;;;;;;;13.72;59.92;98579.50;4439628;32;20524;-90
2021/05/14 01:23:41;;;;;;;1.27;0.85;;;;;;;13.82;59.94;98584.97;4452021;32;20858;-89
2021/05/14 01:26:13;;;;;;;0.70;0.70;;;;;;;13.79;59.94;98583.41;4439334;32;20161;-88
2021/05/14 01:28:39;;;;;;;0.88;0.57;;;;;;;13.81;59.94;98578.06;4439535;32;20441;-89
2021/05/14 01:31:05;;;;;;;1.00;0.65;;;;;;;13.87;59.93;98568.97;4439726;32;20180;-88
2021/05/14 01:33:30;;;;;;;0.80;0.70;;;;;;;13.88;59.94;98566.25;4439568;32;20094;-89
2021/05/14 01:35:56;;;;;;;0.50;0.40;;;;;;;13.89;59.94;98569.72;4439259;32;20174;-88
2021/05/14 01:38:21;;;;;;;0.57;0.47;;;;;;;13.74;59.93;98572.41;4458369;32;20456;-89
2021/05/14 01:40:47;;;;;;;2.30;0.40;;;;;;;13.99;59.94;98570.81;4441774;32;20488;-88
2021/05/14 01:43:12;;;;;;;0.68;0.40;;;;;;;13.85;59.94;98570.84;4454165;32;20358;-88
2021/05/14 01:45:38;;;;;;;0.88;0.40;;;;;;;13.83;59.94;98571.78;4454710;32;20169;-88
2021/05/14 01:48:03;;;;;;;2.87;0.30;;;;;;;13.86;59.93;98562.06;4441723;32;20144;-90
2021/05/14 01:50:29;;;;;;;0.73;0.47;;;;;;;14.06;59.95;98578.16;4441937;32;20088;-92
2021/05/14 01:52:54;;;;;;;0.60;0.40;;;;;;;13.95;59.94;98566.69;4428725;32;20144;-92
2021/05/14 01:55:20;;;;;;;0.82;0.60;;;;;;;13.57;59.92;98579.62;4428840;32;20128;-90
2021/05/14 01:57:45;;;;;;;0.95;0.60;;;;;;;13.65;59.92;98565.12;4441988;32;20085;-90
2021/05/14 02:00:11;;;;;;;3.30;0.40;;;;;;;13.78;59.94;98578.28;4441936;32;20428;-91
2021/05/14 02:02:37;;;;;;;0.70;0.47;;;;;;;13.67;59.93;98578.94;4429231;32;20096;-90
2021/05/14 02:05:02;;;;;;;3.67;0.68;;;;;;;13.91;59.94;98567.84;4428634;32;20473;-89
2021/05/14 02:07:28;;;;;;;2.05;0.60;;;;;;;13.79;59.93;98577.31;4441897;32;20100;-89
2021/05/14 02:09:54;;;;;;;0.45;0.37;;;;;;;13.95;59.94;98572.78;4454772;32;20512;-90
2021/05/14 02:12:19;;;;;;;0.77;0.70;;;;;;;14.04;59.95;98564.34;4441818;32;20092;-89
2021/05/14 02:14:44;;;;;;;1.37;0.65;;;;;;;14.05;59.95;98573.03;4441626;32;20172;-88
2021/05/14 02:17:10;;;;;;;2.80;0.40;;;;;;;14.06;59.95;98575.56;4453832;32;29820;-88
2021/05/14 02:19:36;;;;;;;1.52;0.73;;;;;;;14.11;59.95;98576.09;4454709;32;20597;-88
2021/05/14 02:22:02;;;;;;;2.53;0.57;;;;;;;14.21;59.96;98578.13;4441461;32;20081;-86
2021/05/14 02:24:27;;;;;;;1.20;0.60;;;;;;;13.95;59.94;98575.37;4441590;32;20135;-86
2021/05/14 02:26:52;;;;;;;1.15;0.60;;;;;;;14.10;59.94;98579.66;4453728;32;25381;-86
2021/05/14 02:29:18;;;;;;;2.78;1.08;;;;;;;14.09;59.96;98588.44;4428176;32;20122;-89
2021/05/14 02:31:43;;;;;;;0.55;0.55;;;;;;;14.27;59.96;98575.94;4428229;32;20133;-89
2021/05/14 02:34:08;;;;;;;2.37;1.02;;;;;;;14.27;59.96;98580.31;4428315;32;20180;-89
2021/05/14 02:36:34;;;;;;;1.00;0.60;;;;;;;14.30;59.96;98586.19;4441347;32;20144;-89
2021/05/14 02:38:59;;;;;;;0.70;0.60;;;;;;;14.03;59.95;98585.38;4453823;32;28036;-90
2021/05/14 02:41:25;;;;;;;1.50;0.62;;;;;;;14.14;59.95;98583.72;4428099;32;20588;-90
2021/05/14 02:43:50;;;;;;;1.12;0.45;;;;;;;14.17;59.95;98587.94;4428111;32;31156;-90
2021/05/14 02:46:15;;;;;;;0.75;0.35;;;;;;;14.06;59.95;98587.78;4441653;32;20184;-91
2021/05/14 02:48:41;;;;;;;1.45;0.60;;;;;;;14.05;59.95;98588.72;4428096;32;22003;-90
2021/05/14 02:51:06;;;;;;;1.77;0.45;;;;;;;14.06;59.95;98593.88;4441485;32;20173;-90
2021/05/14 02:53:32;;;;;;;1.58;0.85;;;;;;;14.07;59.95;98595.53;4428902;32;20179;-90
2021/05/14 02:55:57;;;;;;;0.50;0.40;;;;;;;13.99;59.94;98586.53;4428816;32;20191;-90
2021/05/14 02:58:22;;;;;;;0.73;0.70;;;;;;;14.11;59.96;98597.03;4440873;32;23659;-91
2021/05/14 03:00:48;;;;;;;0.50;0.40;;;;;;;14.10;59.96;98602.34;4441272;32;20437;-90
2021/05/14 03:03:13;;;;;;;2.22;0.30;;;;;;;14.19;59.96;98601.75;4441490;32;20122;-89
2021/05/14 03:05:39;;;;;;;0.40;0.30;;;;;;;14.13;59.95;98602.16;4453410;32;27081;-89
2021/05/14 03:08:04;;;;;;;1.08;0.40;;;;;;;14.16;59.96;98598.50;4441176;32;20132;-88
2021/05/14 03:10:29;;;;;;;0.65;0.30;;;;;;;14.19;59.96;98601.75;4440974;32;20093;-90
2021/05/14 03:12:55;;;;;;;0.32;0.30;;;;;;;14.11;59.96;98588.34;4440248;32;33776;-90
2021/05/14 03:15:20;;;;;;;1.00;0.20;;;;;;;14.06;59.95;98588.63;4453939;32;20134;-88
2021/05/14 03:17:46;;;;;;;0.45;0.20;;;;;;;14.05;59.95;98597.41;4427740;32;20978;-90
2021/05/14 03:20:12;;;;;;;0.52;0.30;;;;;;;14.02;59.96;98597.63;4453811;32;20137;-89
2021/05/14 03:22:37;;;;;;;0.20;0.20;;;;;;;14.03;59.95;98601.06;4467917;32;20148;-89
2021/05/14 03:25:04;;;;;;;0.30;0.30;;;;;;;14.07;59.95;98603.41;4428070;32;20198;-89
2021/05/14 03:27:29;;;;;;;0.75;0.30;;;;;;;14.09;59.96;98611.97;4453749;32;20085;-89
2021/05/14 03:29:55;;;;;;;2.17;0.45;;;;;;;14.03;59.95;98616.78;4441064;32;20202;-88
2021/05/14 03:32:21;;;;;;;0.20;0.20;;;;;;;13.83;59.94;98621.50;4428179;32;20096;-89
2021/05/14 03:34:46;;;;;;;2.30;0.30;;;;;;;14.00;59.94;98620.44;4441074;32;20136;-90
2021/05/14 03:37:11;;;;;;;2.55;0.28;;;;;;;14.02;59.94;98622.94;4440297;32;24038;-89
2021/05/14 03:39:43;;;;;;;0.43;0.25;;;;;;;14.15;59.96;98623.81;4467932;32;20144;-90
2021/05/14 03:42:16;;;;;;;0.20;0.20;;;;;;;13.91;59.94;98628.84;4455523;32;20096;-89
2021/05/14 03:44:42;;;;;;;1.15;0.40;;;;;;;14.04;59.95;98623.69;4469915;32;20104;-89
2021/05/14 03:47:07;;;;;;;0.60;0.37;;;;;;;14.18;59.96;98623.63;4442903;32;20486;-88
2021/05/14 03:49:37;;;;;;;0.28;0.20;;;;;;;14.12;59.96;98629.25;4429719;32;20430;-89
2021/05/14 03:52:10;;;;;;;0.37;0.30;;;;;;;14.23;59.96;98625.97;4442783;32;20097;-88
2021/05/14 03:54:35;;;;;;;0.77;0.40;;;;;;;14.35;59.97;98630.41;4455798;32;20613;-88
2021/05/14 03:57:00;;;;;;;0.55;0.30;;;;;;;14.46;59.97;98629.75;4429675;32;20172;-87
2021/05/14 03:59:26;;;;;;;0.25;0.25;;;;;;;14.47;59.97;98626.19;4455575;32;20113;-87
2021/05/14 04:01:52;;;;;;;0.70;0.40;;;;;;;14.45;59.97;98633.31;4455281;32;20092;-91
2021/05/14 04:04:18;;;;;;;1.05;0.73;;;;;;;14.47;59.97;98634.88;4442646;32;20126;-87
2021/05/14 04:06:43;;;;;;;0.50;0.30;;;;;;;14.29;59.96;98634.25;4429663;32;20175;-90
2021/05/14 04:09:09;;;;;;;0.40;0.40;;;;;;;14.29;59.97;98631.63;4442552;32;20160;-88
2021/05/14 04:16:44;;;;;;;0.40;0.40;;;;;;;14.31;59.96;98644.63;4447478;32;20114;-89
2021/05/14 04:19:10;;;;;;;2.62;0.60;;;;;;;14.40;59.98;98644.84;4469559;32;20092;-89
2021/05/14 04:21:35;;;;;;;0.40;0.40;;;;;;;14.47;59.98;98644.50;4455152;32;20115;-88
2021/05/14 04:24:02;;;;;;;0.40;0.30;;;;;;;14.60;59.98;98645.37;4455209;32;20156;-88
2021/05/14 04:26:28;;;;;;;1.45;0.30;;;;;;;14.50;59.97;98650.38;4455269;32;20096;-88
2021/05/14 04:28:53;;;;;;;0.40;0.40;;;;;;;14.65;59.99;98648.50;4454840;32;26223;-88
2021/05/14 04:31:18;;;;;;;0.30;0.22;;;;;;;14.68;59.99;98650.97;4469404;32;20220;-89
2021/05/14 04:33:44;;;;;;;0.50;0.40;;;;;;;14.60;59.98;98650.59;4442011;32;20132;-88
2021/05/14 04:36:09;;;;;;;0.40;0.40;;;;;;;14.57;59.98;98653.44;4441604;32;35748;-90
2021/05/14 04:38:35;;;;;;;5.87;0.50;;;;;;;14.60;59.98;98643.59;4442175;32;20638;-89
2021/05/14 04:41:00;;;;;;;0.60;0.60;;;;;;;14.49;59.98;98655.72;4455157;32;20120;-89
2021/05/14 04:43:25;;;;;;;0.80;0.40;;;;;;;14.50;59.98;98650.38;4442016;32;20441;-88
2021/05/14 04:45:51;;;;;;;1.23;0.43;;;;;;;14.45;59.98;98654.25;4427514;32;20109;-85
2021/05/14 04:48:17;;;;;;;1.80;0.60;;;;;;;14.43;59.97;98659.56;4442235;32;20430;-88
2021/05/14 04:50:42;;;;;;;1.23;0.50;;;;;;;14.38;59.97;98662.44;4441994;32;20109;-90
2021/05/14 04:53:09;;;;;;;0.98;0.40;;;;;;;14.36;59.98;98663.47;4468315;32;20144;-89
2021/05/14 04:55:34;;;;;;;0.77;0.50;;;;;;;14.36;59.97;98658.25;4441597;32;20449;-89
2021/05/14 04:58:00;;;;;;;1.42;0.50;;;;;;;14.35;59.97;98665.25;4469051;32;20119;-89
2021/05/14 05:00:25;;;;;;;1.73;0.57;;;;;;;14.40;59.98;98668.41;4441201;32;25189;-90
2021/05/14 05:02:51;;;;;;;0.32;0.32;;;;;;;14.42;59.97;98661.31;4429140;32;20169;-89
2021/05/14 05:05:16;;;;;;;0.50;0.50;;;;;;;14.46;59.97;98669.00;4429002;32;20158;-89
2021/05/14 05:07:42;;;;;;;2.08;0.60;;;;;;;14.47;59.97;98673.31;4442179;32;20442;-89
2021/05/14 05:10:08;;;;;;;0.73;0.73;;;;;;;14.45;59.97;98672.56;4454987;32;20096;-88
2021/05/14 05:12:33;;;;;;;1.20;0.40;;;;;;;14.45;59.97;98683.03;4469286;32;20494;-90
2021/05/14 05:14:59;;;;;;;1.15;0.50;;;;;;;14.50;59.97;98665.25;4454836;32;20138;-89
2021/05/14 05:17:24;;;;;;;0.73;0.60;;;;;;;14.64;59.98;98675.66;4428714;32;26173;-88
2021/05/14 05:19:50;;;;;;;0.77;0.70;;;;;;;14.37;59.97;98683.50;4429028;32;20100;-89
2021/05/14 05:22:16;;;;;;;1.40;0.50;;;;;;;14.34;59.97;98681.06;4442199;32;20499;-90
2021/05/14 05:24:41;;;;;;;2.15;0.60;;;;;;;14.41;59.96;98682.34;4441753;32;20125;-88
2021/05/14 05:27:07;;;;;;;0.57;0.52;;;;;;;14.48;59.97;98682.84;4454632;32;20136;-89
2021/05/14 05:29:35;;;;;;;2.50;0.57;;;;;;;14.74;59.99;98690.66;4429187;32;20142;-89
2021/05/14 05:32:00;;;;;;;1.35;0.50;;;;;;;14.68;59.98;98696.31;4429114;32;20097;-88
2021/05/14 05:34:27;;;;;;;0.77;0.50;;;;;;;14.77;59.99;98700.09;4428724;32;20170;-90
2021/05/14 05:36:53;;;;;;;1.52;0.85;;;;;;;14.60;59.98;98697.75;4428981;32;21040;-89
2021/05/14 05:39:18;;;;;;;1.70;0.60;;;;;;;14.74;59.99;98709.00;4441486;32;20502;-89
2021/05/14 05:41:43;;;;;;;2.40;0.60;;;;;;;14.61;59.98;98707.28;4441174;32;23858;-91
2021/05/14 05:44:09;;;;;;;1.08;0.80;;;;;;;14.82;59.99;98702.41;4441629;32;20168;-89
2021/05/14 05:46:34;;;;;;;1.12;0.60;;;;;;;14.94;59.99;98709.47;4453941;32;30298;-89
2021/05/14 05:49:00;;;;;;;1.40;0.75;;;;;;;14.82;59.99;98711.13;4441314;32;20496;-89
2021/05/14 05:51:25;;;;;;;1.15;0.60;;;;;;;14.80;60.00;98713.00;4454619;32;20160;-89
2021/05/14 05:53:50;;;;;;;0.80;0.70;;;;;;;14.89;60.00;98712.37;4441760;32;20125;-89
2021/05/14 05:56:16;;;;;;;0.60;0.60;;;;;;;14.98;60.00;98714.41;4454322;32;20160;-89
2021/05/14 05:58:42;;;;;;;1.85;0.82;;;;;;;15.24;60.01;98715.28;4441888;32;20096;-89
2021/05/14 06:01:07;;;;;;;1.98;0.75;;;;;;;15.00;60.00;98714.31;4454526;32;20169;-89
2021/05/14 06:03:33;;;;;;;1.25;0.70;;;;;;;15.15;60.00;98709.84;4428393;32;20112;-89
2021/05/14 06:05:58;;;;;;;1.80;0.68;;;;;;;15.19;60.02;98719.16;4452689;32;31990;-89
2021/05/14 06:08:24;;;;;;;0.90;0.80;;;;;;;15.19;60.01;98720.00;4428319;32;24750;-89
2021/05/14 06:10:51;;;;;;;1.23;0.25;;;;;;;15.21;60.01;98714.66;4468856;32;20112;-89
2021/05/14 06:13:17;;;;;;;1.35;0.70;;;;;;;15.36;60.02;98714.44;4429263;32;20130;-89
2021/05/14 06:15:42;;;;;;;0.93;0.52;;;;;;;15.46;60.02;98716.47;4468794;32;20422;-88
2021/05/14 06:18:12;;;;;;;0.82;0.60;;;;;;;15.52;60.03;98719.50;4441520;32;20418;-89
2021/05/14 06:20:40;;;;;;;0.70;0.43;;;;;;;15.46;60.02;98732.19;4441702;32;20544;-89
2021/05/14 06:23:07;;;;;;;3.90;0.73;;;;;;;15.34;60.02;98736.47;4454385;32;20528;-90
2021/05/14 06:25:32;;;;;;;1.95;0.80;;;;;;;15.33;60.02;98734.78;4441508;32;20477;-89
2021/05/14 06:27:59;;;;;;;0.60;0.60;;;;;;;15.49;60.03;98732.81;4468148;32;21910;-91
2021/05/14 06:30:24;;;;;;;0.82;0.80;;;;;;;15.40;60.03;98737.84;4441679;32;20108;-90
2021/05/14 06:32:49;;;;;;;1.55;0.65;;;;;;;15.28;60.02;98742.13;4468744;32;20175;-89
2021/05/14 06:35:15;;;;;;;2.30;0.80;;;;;;;15.09;60.00;98752.16;4441487;32;20487;-90
2021/05/14 06:37:40;;;;;;;1.37;0.77;;;;;;;15.13;60.01;98751.84;4468526;32;20429;-89
2021/05/14 06:40:07;;;;;;;1.85;0.68;;;;;;;15.15;60.01;98757.84;4468844;32;20380;-90
2021/05/14 06:42:32;;;;;;;0.62;0.52;;;;;;;15.19;60.01;98763.72;4441507;32;20077;-89
2021/05/14 06:44:57;;;;;;;3.55;0.93;;;;;;;15.43;60.02;98756.84;4454302;32;20131;-89
2021/05/14 06:47:23;;;;;;;5.65;0.70;;;;;;;15.47;60.02;98757.47;4428540;32;20129;-90
2021/05/14 06:49:48;;;;;;;1.00;0.65;;;;;;;15.71;60.04;98757.63;4441508;32;20118;-90
2021/05/14 06:52:14;;;;;;;1.00;0.90;;;;;;;15.72;60.04;98756.66;4440574;32;29800;-90
2021/05/14 06:54:39;;;;;;;0.93;0.70;;;;;;;15.59;60.03;98760.13;4441497;32;20230;-90
2021/05/14 06:57:04;;;;;;;1.15;0.80;;;;;;;15.73;60.04;98761.81;4427830;32;31799;-91
2021/05/14 06:59:30;;;;;;;6.18;0.88;;;;;;;15.67;60.04;98766.66;4441101;32;20108;-88
2021/05/14 07:01:55;;;;;;;1.00;0.90;;;;;;;15.51;60.03;98765.03;4454033;32;20130;-90
2021/05/14 07:04:21;;;;;;;1.87;0.93;;;;;;;15.49;60.03;98766.91;4441252;32;20143;-89
2021/05/14 07:06:46;;;;;;;3.95;0.73;;;;;;;15.41;60.03;98768.38;4440735;32;20916;-89
2021/05/14 07:09:12;;;;;;;3.60;1.00;;;;;;;15.60;60.03;98768.81;4454131;32;20552;-88
2021/05/14 07:11:37;;;;;;;2.17;0.95;;;;;;;15.58;60.03;98773.31;4453865;32;20112;-90
2021/05/14 07:14:03;;;;;;;4.53;0.93;;;;;;;15.46;60.02;98766.28;4453592;32;20124;-90
2021/05/14 07:16:28;;;;;;;2.42;1.30;;;;;;;15.31;60.03;98779.47;4427482;32;20096;-89
2021/05/14 07:18:55;;;;;;;1.23;1.12;;;;;;;15.03;60.01;98782.25;4453556;32;21102;-89
2021/05/14 07:21:20;;;;;;;1.42;1.20;;;;;;;15.01;60.00;98792.81;4453798;32;20149;-89
2021/05/14 07:23:46;;;;;;;2.53;1.30;;;;;;;14.91;60.00;98797.00;4440878;32;20117;-89
2021/05/14 07:26:11;;;;;;;3.58;1.12;;;;;;;15.15;60.01;98784.06;4453940;32;20161;-89
2021/05/14 07:28:37;;;;;;;1.40;1.17;;;;;;;15.29;60.01;98785.75;4428233;32;20473;-90
2021/05/14 07:31:02;;;;;;;1.67;0.93;;;;;;;15.49;60.03;98785.28;4453499;32;20112;-88
2021/05/14 07:33:27;;;;;;;1.73;1.20;;;;;;;15.68;60.04;98789.31;4468033;32;20136;-89
2021/05/14 07:35:54;;;;;;;1.85;1.20;;;;;;;15.59;60.04;98794.22;4427740;32;20127;-89
2021/05/14 07:38:19;;;;;;;1.83;1.12;;;;;;;15.57;60.04;98792.62;4467988;32;20113;-89
2021/05/14 07:40:45;;;;;;;3.67;1.40;;;;;;;15.52;60.03;98792.94;4440685;32;20469;-90
2021/05/14 07:43:10;;;;;;;3.15;1.40;;;;;;;15.71;60.04;98799.59;4440597;32;20097;-90
2021/05/14 07:45:35;;;;;;;1.42;1.00;;;;;;;15.81;60.05;98795.38;4427673;32;20123;-89
2021/05/14 07:48:04;;;;;;;1.27;0.88;;;;;;;15.93;60.06;98800.66;4453078;32;20104;-89
2021/05/14 07:50:30;;;;;;;1.83;1.20;;;;;;;15.91;60.05;98802.53;4428005;32;20077;-88
2021/05/14 07:52:56;;;;;;;2.75;1.40;;;;;;;15.72;60.04;98809.12;4467822;32;20130;-89
2021/05/14 07:55:21;;;;;;;2.60;1.10;;;;;;;15.83;60.04;98799.56;4467879;32;20700;-88
2021/05/14 07:57:47;;;;;;;1.08;0.80;;;;;;;16.15;60.06;98800.00;4467829;32;20399;-88
2021/05/14 08:00:13;;;;;;;1.25;1.08;;;;;;;15.98;60.05;98795.06;4453409;32;20112;-88
2021/05/14 08:02:38;;;;;;;2.20;0.80;;;;;;;16.13;60.07;98804.50;4440267;32;20093;-89
2021/05/14 08:05:04;;;;;;;2.90;1.15;;;;;;;16.35;60.07;98798.59;4453184;32;20144;-89
2021/05/14 08:07:29;;;;;;;5.43;1.08;;;;;;;16.34;60.07;98802.19;4453436;32;20420;-89
2021/05/14 08:09:55;;;;;;;1.65;1.20;;;;;;;16.28;60.07;98808.69;4439830;32;33765;-89
2021/05/14 08:12:22;;;;;;;3.20;1.40;;;;;;;16.33;60.08;98812.78;4427352;32;20171;-89
2021/05/14 08:14:47;;;;;;;3.62;1.10;;;;;;;16.36;60.07;98810.78;4453383;32;20092;-89
2021/05/14 08:17:13;;;;;;;6.37;1.37;;;;;;;16.46;60.08;98810.97;4440290;32;20161;-89
2021/05/14 08:19:38;;;;;;;1.48;0.95;;;;;;;16.51;60.08;98819.34;4453022;32;20128;-89
2021/05/14 08:22:04;;;;;;;1.67;1.02;;;;;;;16.27;60.07;98824.53;4453073;32;20342;-88
2021/05/14 08:24:29;;;;;;;4.62;0.85;;;;;;;16.10;60.06;98825.72;4439525;32;27980;-88
2021/05/14 08:26:54;;;;;;;0.55;0.55;;;;;;;16.06;60.06;98826.87;4467390;32;20186;-88
2021/05/14 08:29:20;;;;;;;1.10;0.50;;;;;;;16.19;60.07;98829.50;4454277;32;20190;-89
2021/05/14 08:31:45;;;;;;;0.80;0.80;;;;;;;15.95;60.06;98829.41;4454706;32;20126;-89
2021/05/14 08:34:11;;;;;;;1.15;0.82;;;;;;;15.99;60.05;98825.63;4469400;32;20421;-89
2021/05/14 08:36:37;;;;;;;1.27;0.80;;;;;;;16.08;60.05;98840.72;4469465;32;20115;-88
2021/05/14 08:39:03;;;;;;;1.30;0.98;;;;;;;16.21;60.07;98838.94;4455134;32;20376;-89
2021/05/14 08:41:28;;;;;;;1.27;0.88;;;;;;;16.35;60.07;98840.63;4429208;32;20414;-89
2021/05/14 08:43:54;;;;;;;1.33;0.70;;;;;;;16.24;60.06;98840.50;4442238;32;20456;-88
2021/05/14 08:46:19;;;;;;;1.37;0.77;;;;;;;16.02;60.06;98853.44;4442230;32;20108;-88
2021/05/14 08:48:45;;;;;;;1.17;1.08;;;;;;;16.16;60.06;98850.72;4454991;32;20111;-89
2021/05/14 08:51:12;;;;;;;1.35;1.00;;;;;;;16.33;60.08;98849.56;4429273;32;20107;-88
2021/05/14 08:53:43;;;;;;;2.67;1.00;;;;;;;16.26;60.08;98857.00;4429410;32;20104;-89
2021/05/14 08:56:09;;;;;;;2.15;0.90;;;;;;;16.31;60.08;98854.88;4442610;32;20093;-89
2021/05/14 08:58:37;;;;;;;1.17;0.85;;;;;;;16.32;60.08;98856.56;4441835;32;20695;-88
2021/05/14 09:01:02;;;;;;;2.62;0.98;;;;;;;16.50;60.08;98855.28;4442156;32;20510;-89
2021/05/14 09:03:27;;;;;;;1.00;0.70;;;;;;;16.43;60.08;98859.28;4454900;32;20117;-89
2021/05/14 09:05:53;;;;;;;1.42;0.88;;;;;;;16.51;60.08;98856.13;4455110;32;20159;-89
2021/05/14 09:08:29;;;;;;;1.77;1.00;;;;;;;16.66;60.09;98859.47;4455127;32;20123;-89
2021/05/14 09:10:54;;;;;;;1.55;0.80;;;;;;;16.67;60.09;98867.28;4455090;32;20085;-88
2021/05/14 09:13:20;;;;;;;3.25;0.85;;;;;;;16.59;60.09;98877.47;4442287;32;20127;-89
2021/05/14 09:15:46;;;;;;;0.90;0.50;;;;;;;16.73;60.09;98863.34;4454819;32;20166;-90
2021/05/14 09:18:15;;;;;;;1.27;0.95;;;;;;;17.07;60.11;98865.25;4441855;32;20372;-89
2021/05/14 09:20:45;;;;;;;2.10;1.55;;;;;;;17.22;60.12;98863.28;4455059;32;20085;-88
2021/05/14 09:23:16;;;;;;;1.42;1.00;;;;;;;16.95;60.11;98866.13;4454749;32;20139;-89
2021/05/14 09:25:58;;;;;;;2.28;1.10;;;;;;;16.72;60.09;98875.66;4454805;32;20148;-90
2021/05/14 09:28:35;;;;;;;2.45;0.85;;;;;;;17.23;60.12;98862.34;4441849;32;20085;-89
2021/05/14 09:31:19;;;;;;;1.08;0.98;;;;;;;17.34;60.13;98867.66;4430534;32;20190;-88
2021/05/14 09:33:55;;;;;;;1.85;1.15;;;;;;;17.39;60.14;98876.03;4469226;32;20388;-89
2021/05/14 09:36:23;;;;;;;1.45;1.20;;;;;;;17.33;60.13;98879.13;4442036;32;20485;-88
2021/05/14 09:39:03;;;;;;;1.77;1.10;;;;;;;17.37;60.12;98864.78;4441699;32;20088;-89
2021/05/14 09:41:32;;;;;;;;;;;;;;;17.23;60.12;98879.91;4429454;32;20085;-88
2021/05/14 09:43:58;;;;;;;2.40;1.20;;;;;;;17.19;60.12;98876.66;4469025;32;19980;-89
2021/05/14 09:46:34;;;;;;;3.78;1.52;;;;;;;17.08;60.12;98887.97;4454821;32;20104;-89
2021/05/14 09:49:10;;;;;;;1.83;1.33;;;;;;;16.98;60.11;98883.47;4441846;32;20164;-89
2021/05/14 09:51:47;;;;;;;1.20;1.05;;;;;;;17.10;60.12;98890.50;4442991;32;20081;-89
2021/05/14 09:54:18;;;;;;;1.90;1.20;;;;;;;16.93;60.11;98891.69;4454709;32;20104;-89
2021/05/14 09:56:45;;;;;;;2.62;1.30;;;;;;;17.00;60.10;98892.09;4469217;32;20834;-88
2021/05/14 09:59:10;;;;;;;1.60;1.30;;;;;;;16.94;60.11;98900.41;4454860;32;20093;-89
2021/05/14 10:01:35;;;;;;;2.47;1.12;;;;;;;16.98;60.11;98889.56;4441731;32;20444;-89
2021/05/14 10:04:01;;;;;;;3.40;1.50;;;;;;;17.11;60.12;98892.16;4441217;32;24572;-88
2021/05/14 10:06:26;;;;;;;2.00;1.23;;;;;;;17.07;60.11;98896.81;4428403;32;20492;-89
2021/05/14 10:08:52;;;;;;;1.87;1.10;;;;;;;17.05;60.11;98888.19;4454110;32;20148;-89
2021/05/14 10:11:21;;;;;;;2.45;1.00;;;;;;;17.03;60.11;98886.59;4428688;32;20464;-89
2021/05/14 10:13:46;;;;;;;1.37;1.00;;;;;;;16.99;60.10;98891.25;4441790;32;20174;-89
2021/05/14 10:16:12;;;;;;;0.98;0.88;;;;;;;16.94;60.11;98898.63;4454509;32;20155;-89
2021/05/14 10:18:41;;;;;;;0.77;0.68;;;;;;;16.91;60.10;98890.13;4427884;32;34219;-90
2021/05/14 10:21:07;;;;;;;1.23;0.75;;;;;;;16.85;60.11;98892.25;4441863;32;20485;-89
2021/05/14 10:23:33;;;;;;;0.93;0.70;;;;;;;16.85;60.11;98896.66;4441793;32;20148;-90
2021/05/14 10:26:05;;;;;;;2.25;0.88;;;;;;;16.70;60.10;98898.59;4428761;32;20160;-89
2021/05/14 10:28:31;;;;;;;1.40;1.05;;;;;;;16.80;60.10;98889.13;4454683;32;20097;-88
2021/05/14 10:31:05;;;;;;;1.30;1.10;;;;;;;16.70;60.10;98893.31;4427597;32;39698;-89
2021/05/14 10:33:38;;;;;;;1.12;0.82;;;;;;;16.85;60.11;98889.63;4468740;32;20127;-89
2021/05/14 10:36:08;;;;;;;2.55;0.98;;;;;;;16.74;60.09;98896.56;4441452;32;20108;-88
2021/05/14 10:38:35;;;;;;;0.93;0.80;;;;;;;17.14;60.11;98898.03;4441934;32;20529;-90
2021/05/14 10:41:00;;;;;;;1.20;1.08;;;;;;;17.12;60.11;98888.59;4428659;32;20184;-90
2021/05/14 10:43:25;;;;;;;3.90;1.17;;;;;;;17.29;60.13;98890.84;4440550;32;33365;-89
2021/05/14 10:46:00;;;;;;;3.05;1.10;;;;;;;17.30;60.12;98895.16;4438692;32;20117;-90
2021/05/14 10:48:26;;;;;;;1.52;1.37;;;;;;;17.49;60.14;98884.91;4454573;32;20080;-90
2021/05/14 10:50:53;;;;;;;2.33;1.05;;;;;;;17.39;60.14;98891.81;4453482;32;20107;-89
2021/05/14 10:53:28;;;;;;;1.80;1.00;;;;;;;16.76;60.10;98895.50;4441408;32;20172;-89
2021/05/14 10:55:54;;;;;;;1.73;1.10;;;;;;;16.74;60.09;98915.81;4441770;32;20096;-89
2021/05/14 10:58:41;;;;;;;1.25;0.95;;;;;;;16.66;60.09;98914.66;4454110;32;20088;-90
2021/05/14 11:01:06;;;;;;;1.30;0.95;;;;;;;16.44;60.08;98916.13;4454156;32;20100;-90
2021/05/14 11:03:32;;;;;;;1.70;1.12;;;;;;;16.78;60.10;98919.91;4441240;32;20421;-90
2021/05/14 11:06:21;;;;;;;0.90;0.80;;;;;;;17.08;60.12;98918.69;4428470;32;20514;-90
2021/05/14 11:09:09;;;;;;;1.60;1.37;;;;;;;17.15;60.13;98915.50;4460139;32;20530;-90
2021/05/14 11:11:34;;;;;;;1.15;0.82;;;;;;;17.25;60.13;98914.81;4454307;32;20116;-89
2021/05/14 11:14:21;;;;;;;0.98;0.90;;;;;;;17.23;60.12;98927.25;4441422;32;20197;-90
2021/05/14 11:16:46;;;;;;;1.85;0.90;;;;;;;17.22;60.12;98926.41;4454339;32;20104;-89
2021/05/14 11:19:28;;;;;;;2.35;1.17;;;;;;;17.23;60.12;98925.44;4454037;32;20115;-90
2021/05/14 11:22:11;;;;;;;1.30;0.60;;;;;;;17.32;60.13;98932.69;4468348;32;20119;-91
2021/05/14 11:24:44;;;;;;;1.90;0.68;;;;;;;17.37;60.13;98909.50;4454617;32;20131;-90
2021/05/14 11:27:11;;;;;;;0.70;0.57;;;;;;;17.55;60.14;98912.59;4441218;32;20130;-90
2021/05/14 11:29:46;;;;;;;0.70;0.70;;;;;;;18.09;60.17;98901.53;4454230;32;20114;-90
2021/05/14 11:32:20;;;;;;;1.23;0.70;;;;;;;18.45;60.19;98897.84;4468326;32;20460;-89
2021/05/14 11:35:20;;;;;;;1.67;0.70;;;;;;;18.89;60.21;98897.03;4468137;32;20178;-88
2021/05/14 11:37:56;;;;;;;1.42;0.57;;;;;;;18.95;60.22;98901.00;4455854;32;20112;-87